createdAt,value
2023-05-03T00:00:04.255Z,89.86
2023-05-03T00:01:03.543Z,90.06
2023-05-03T00:02:03.570Z,89.86
2023-05-03T00:03:03.537Z,89.54
2023-05-03T00:04:03.533Z,89.75
2023-05-03T00:05:04.775Z,90.06
2023-05-03T00:06:03.601Z,90.16
2023-05-03T00:07:03.494Z,90.37
2023-05-03T00:08:03.477Z,90.37
2023-05-03T00:09:03.493Z,90.26
2023-05-03T00:10:03.831Z,90.37
2023-05-03T00:11:03.418Z,90.58
2023-05-03T00:12:03.421Z,90.58
2023-05-03T00:13:03.570Z,90.68
2023-05-03T00:14:03.406Z,90.68
2023-05-03T00:15:03.389Z,90.58
2023-05-03T00:16:03.363Z,90.72
2023-05-03T00:17:03.359Z,90.83
2023-05-03T00:18:03.367Z,90.72
2023-05-03T00:19:03.344Z,90.83
2023-05-03T00:20:03.526Z,90.83
2023-05-03T00:21:03.303Z,90.83
2023-05-03T00:22:03.330Z,90.93
2023-05-03T00:23:03.298Z,90.72
2023-05-03T00:24:03.275Z,90.72
2023-05-03T00:25:03.281Z,91.14
2023-05-03T00:26:03.272Z,91.24
2023-05-03T00:27:03.290Z,90.83
2023-05-03T00:28:03.413Z,90.72
2023-05-03T00:29:03.222Z,91.03
2023-05-03T00:30:03.590Z,90.72
2023-05-03T00:31:03.259Z,90.83
2023-05-03T00:32:03.176Z,90.97
2023-05-03T00:33:03.226Z,91.08
2023-05-03T00:34:03.168Z,91.39
2023-05-03T00:35:03.153Z,91.80
2023-05-03T00:36:03.127Z,92.32
2023-05-03T00:37:03.150Z,92.43
2023-05-03T00:38:03.102Z,92.32
2023-05-03T00:39:03.128Z,92.22
2023-05-03T00:40:03.301Z,92.22
2023-05-03T00:41:03.108Z,91.70
2023-05-03T00:42:03.095Z,91.80
2023-05-03T00:43:03.119Z,91.91
2023-05-03T00:44:03.051Z,91.49
2023-05-03T00:45:03.065Z,91.49
2023-05-03T00:46:12.976Z,91.49
2023-05-03T00:47:04.074Z,91.60
2023-05-03T00:48:03.081Z,91.39
2023-05-03T00:49:03.026Z,91.39
2023-05-03T00:50:03.227Z,91.60
2023-05-03T00:51:02.977Z,91.39
2023-05-03T00:52:03.017Z,91.33
2023-05-03T00:53:02.956Z,91.33
2023-05-03T00:54:02.962Z,91.33
2023-05-03T00:55:03.270Z,91.22
2023-05-03T00:56:02.921Z,91.85
2023-05-03T00:57:02.903Z,91.85
2023-05-03T00:58:02.889Z,91.74
2023-05-03T00:59:02.888Z,91.85
2023-05-03T01:00:03.007Z,92.16
2023-05-03T01:01:02.890Z,92.36
2023-05-03T01:02:02.912Z,92.26
2023-05-03T01:03:02.960Z,92.57
2023-05-03T01:04:02.951Z,92.88
2023-05-03T01:05:02.824Z,93.08
2023-05-03T01:06:02.866Z,93.29
2023-05-03T01:07:02.797Z,93.29
2023-05-03T01:08:02.788Z,92.88
2023-05-03T01:09:02.768Z,93.08
2023-05-03T01:10:03.110Z,93.08
2023-05-03T01:11:02.759Z,93.29
2023-05-03T01:12:02.752Z,93.50
2023-05-03T01:13:02.819Z,93.40
2023-05-03T01:14:02.730Z,93.40
2023-05-03T01:15:02.700Z,93.19
2023-05-03T01:16:02.735Z,93.40
2023-05-03T01:17:02.689Z,93.50
2023-05-03T01:18:02.686Z,93.60
2023-05-03T01:19:02.670Z,93.71
2023-05-03T01:20:02.926Z,93.71
2023-05-03T01:21:02.638Z,93.60
2023-05-03T01:22:02.622Z,93.50
2023-05-03T01:23:02.607Z,93.08
2023-05-03T01:24:02.624Z,93.08
2023-05-03T01:25:02.597Z,93.19
2023-05-03T01:26:02.565Z,93.40
2023-05-03T01:27:02.592Z,93.19
2023-05-03T01:28:02.570Z,93.08
2023-05-03T01:29:02.548Z,93.19
2023-05-03T01:30:02.837Z,92.88
2023-05-03T01:31:02.516Z,93.02
2023-05-03T01:32:02.594Z,93.29
2023-05-03T01:33:02.625Z,93.23
2023-05-03T01:34:02.607Z,93.54
2023-05-03T01:35:02.471Z,93.75
2023-05-03T01:36:02.492Z,93.71
2023-05-03T01:37:02.492Z,93.60
2023-05-03T01:38:02.449Z,93.54
2023-05-03T01:39:02.463Z,93.65
2023-05-03T01:40:02.657Z,93.65
2023-05-03T01:41:02.413Z,93.54
2023-05-03T01:42:02.434Z,93.33
2023-05-03T01:43:02.392Z,93.33
2023-05-03T01:44:02.607Z,93.13
2023-05-03T01:45:02.398Z,93.33
2023-05-03T01:46:02.395Z,93.23
2023-05-03T01:47:02.356Z,93.13
2023-05-03T01:48:02.364Z,93.13
2023-05-03T01:49:02.343Z,93.13
2023-05-03T01:50:02.595Z,93.23
2023-05-03T01:51:02.296Z,93.54
2023-05-03T01:52:02.296Z,93.44
2023-05-03T01:53:02.305Z,93.65
2023-05-03T01:54:02.265Z,93.75
2023-05-03T01:55:02.276Z,93.65
2023-05-03T01:56:02.232Z,93.85
2023-05-03T01:57:02.229Z,94.11
2023-05-03T01:58:02.232Z,94.11
2023-05-03T01:59:02.232Z,94.53
2023-05-03T02:00:02.398Z,94.42
2023-05-03T02:01:02.224Z,94.21
2023-05-03T02:02:02.178Z,94.21
2023-05-03T02:03:02.237Z,94.21
2023-05-03T02:04:02.225Z,93.90
2023-05-03T02:05:02.176Z,93.59
2023-05-03T02:06:02.167Z,93.70
2023-05-03T02:07:02.124Z,93.70
2023-05-03T02:08:02.144Z,94.01
2023-05-03T02:09:02.149Z,94.53
2023-05-03T02:10:02.293Z,94.73
2023-05-03T02:11:02.106Z,94.63
2023-05-03T02:12:02.054Z,94.42
2023-05-03T02:13:02.093Z,94.63
2023-05-03T02:14:02.064Z,94.73
2023-05-03T02:15:02.152Z,94.84
2023-05-03T02:16:02.019Z,94.73
2023-05-03T02:17:02.342Z,94.73
2023-05-03T02:18:02.036Z,94.53
2023-05-03T02:19:02.943Z,94.42
2023-05-03T02:20:02.300Z,94.63
2023-05-03T02:21:02.016Z,94.73
2023-05-03T02:22:02.753Z,94.94
2023-05-03T02:23:02.120Z,95.15
2023-05-03T02:24:01.948Z,95.25
2023-05-03T02:25:01.929Z,95.25
2023-05-03T02:26:02.035Z,95.25
2023-05-03T02:27:01.901Z,95.15
2023-05-03T02:28:01.899Z,95.36
2023-05-03T02:29:01.895Z,95.36
2023-05-03T02:30:02.273Z,95.15
2023-05-03T02:31:01.986Z,95.25
2023-05-03T02:32:01.858Z,95.36
2023-05-03T02:33:01.868Z,95.56
2023-05-03T02:34:01.839Z,95.61
2023-05-03T02:35:01.807Z,95.50
2023-05-03T02:36:08.897Z,95.29
2023-05-03T02:37:01.901Z,95.19
2023-05-03T02:38:01.804Z,94.98
2023-05-03T02:39:01.787Z,94.98
2023-05-03T02:40:02.027Z,95.09
2023-05-03T02:41:01.755Z,95.29
2023-05-03T02:42:01.797Z,95.50
2023-05-03T02:43:01.745Z,95.61
2023-05-03T02:44:01.758Z,95.71
2023-05-03T02:45:01.711Z,95.61
2023-05-03T02:46:01.732Z,95.50
2023-05-03T02:47:01.694Z,95.40
2023-05-03T02:48:01.752Z,95.29
2023-05-03T02:49:01.663Z,95.09
2023-05-03T02:50:02.083Z,95.09
2023-05-03T02:51:01.636Z,94.98
2023-05-03T02:52:01.639Z,95.54
2023-05-03T02:53:01.655Z,95.65
2023-05-03T02:54:01.599Z,95.61
2023-05-03T02:55:01.583Z,95.71
2023-05-03T02:56:01.595Z,96.02
2023-05-03T02:57:01.615Z,95.86
2023-05-03T02:58:01.566Z,96.06
2023-05-03T02:59:01.573Z,95.96
2023-05-03T03:00:01.805Z,96.06
2023-05-03T03:01:01.530Z,96.17
2023-05-03T03:02:01.594Z,96.17
2023-05-03T03:03:01.584Z,96.27
2023-05-03T03:04:01.624Z,96.37
2023-05-03T03:05:01.532Z,96.48
2023-05-03T03:06:01.509Z,96.58
2023-05-03T03:07:01.474Z,96.69
2023-05-03T03:08:01.452Z,96.69
2023-05-03T03:09:01.484Z,96.48
2023-05-03T03:10:01.546Z,96.27
2023-05-03T03:11:01.433Z,96.06
2023-05-03T03:12:01.403Z,95.86
2023-05-03T03:13:01.397Z,95.96
2023-05-03T03:14:01.378Z,95.90
2023-05-03T03:15:01.397Z,96.11
2023-05-03T03:16:01.411Z,96.21
2023-05-03T03:17:01.364Z,96.21
2023-05-03T03:18:01.382Z,96.42
2023-05-03T03:19:01.347Z,96.42
2023-05-03T03:20:01.534Z,96.31
2023-05-03T03:21:01.327Z,96.31
2023-05-03T03:22:01.932Z,96.31
2023-05-03T03:23:01.290Z,96.21
2023-05-03T03:24:01.297Z,96.11
2023-05-03T03:25:01.293Z,96.42
2023-05-03T03:26:01.265Z,96.73
2023-05-03T03:27:01.273Z,96.83
2023-05-03T03:28:01.214Z,96.73
2023-05-03T03:29:01.240Z,96.73
2023-05-03T03:30:01.647Z,96.62
2023-05-03T03:31:01.212Z,96.42
2023-05-03T03:32:01.357Z,96.52
2023-05-03T03:33:01.287Z,96.52
2023-05-03T03:34:01.172Z,96.83
2023-05-03T03:35:01.184Z,96.94
2023-05-03T03:36:01.171Z,97.14
2023-05-03T03:37:01.142Z,97.14
2023-05-03T03:38:01.110Z,97.35
2023-05-03T03:39:01.134Z,97.45
2023-05-03T03:40:01.321Z,97.35
2023-05-03T03:41:01.104Z,97.45
2023-05-03T03:42:01.114Z,97.67
2023-05-03T03:43:01.077Z,97.67
2023-05-03T03:44:01.055Z,97.67
2023-05-03T03:45:01.068Z,97.56
2023-05-03T03:46:01.034Z,97.45
2023-05-03T03:47:01.072Z,97.45
2023-05-03T03:48:01.078Z,97.67
2023-05-03T03:49:01.007Z,97.56
2023-05-03T03:50:01.345Z,97.25
2023-05-03T03:51:00.988Z,97.04
2023-05-03T03:52:00.983Z,97.04
2023-05-03T03:53:00.997Z,96.94
2023-05-03T03:54:00.971Z,96.94
2023-05-03T03:55:00.939Z,97.04
2023-05-03T03:56:00.933Z,97.04
2023-05-03T03:57:00.935Z,97.04
2023-05-03T03:58:00.919Z,97.14
2023-05-03T03:59:00.900Z,96.94
2023-05-03T04:00:01.318Z,96.94
2023-05-03T04:01:00.870Z,97.04
2023-05-03T04:02:00.915Z,97.25
2023-05-03T04:03:00.864Z,97.35
2023-05-03T04:04:01.045Z,97.45
2023-05-03T04:05:00.842Z,97.35
2023-05-03T04:06:00.905Z,97.61
2023-05-03T04:07:00.801Z,97.67
2023-05-03T04:08:00.811Z,97.77
2023-05-03T04:09:00.809Z,97.77
2023-05-03T04:10:01.119Z,98.08
2023-05-03T04:11:01.080Z,98.29
2023-05-03T04:12:00.751Z,98.29
2023-05-03T04:13:00.774Z,98.39
2023-05-03T04:14:00.737Z,98.39
2023-05-03T04:15:00.740Z,98.29
2023-05-03T04:16:01.777Z,98.29
2023-05-03T04:17:00.804Z,98.29
2023-05-03T04:18:00.841Z,98.29
2023-05-03T04:19:00.798Z,98.29
2023-05-03T04:20:01.341Z,98.29
2023-05-03T04:21:00.779Z,98.19
2023-05-03T04:22:00.788Z,98.19
2023-05-03T04:23:00.859Z,98.19
2023-05-03T04:24:00.836Z,98.08
2023-05-03T04:25:00.779Z,98.08
2023-05-03T04:26:02.542Z,98.08
2023-05-03T04:27:00.775Z,97.98
2023-05-03T04:28:00.711Z,98.08
2023-05-03T04:29:00.815Z,98.19
2023-05-03T04:30:00.838Z,98.29
2023-05-03T04:31:00.642Z,98.29
2023-05-03T04:32:00.527Z,98.29
2023-05-03T04:33:00.563Z,98.19
2023-05-03T04:34:00.529Z,98.08
2023-05-03T04:35:00.522Z,97.98
2023-05-03T04:36:00.474Z,97.98
2023-05-03T04:37:00.477Z,98.08
2023-05-03T04:38:00.482Z,98.29
2023-05-03T04:39:00.456Z,98.24
2023-05-03T04:40:00.637Z,98.35
2023-05-03T04:41:00.422Z,98.24
2023-05-03T04:42:00.433Z,98.24
2023-05-03T04:43:00.409Z,98.24
2023-05-03T04:44:00.447Z,98.35
2023-05-03T04:45:00.371Z,98.45
2023-05-03T04:46:00.487Z,98.45
2023-05-03T04:47:00.372Z,98.35
2023-05-03T04:48:00.462Z,98.35
2023-05-03T04:49:00.354Z,98.45
2023-05-03T04:50:00.428Z,98.45
2023-05-03T04:51:00.851Z,98.55
2023-05-03T04:52:00.347Z,98.55
2023-05-03T04:53:00.317Z,98.66
2023-05-03T04:54:00.323Z,98.76
2023-05-03T04:55:00.289Z,98.76
2023-05-03T04:56:00.353Z,98.72
2023-05-03T04:57:00.245Z,98.72
2023-05-03T04:58:00.245Z,98.61
2023-05-03T04:59:00.233Z,98.51
2023-05-03T05:00:00.328Z,98.51
2023-05-03T05:01:00.198Z,98.51
2023-05-03T05:02:00.507Z,98.51
2023-05-03T05:03:00.336Z,98.61
2023-05-03T05:04:00.323Z,98.51
2023-05-03T05:05:01.164Z,98.41
2023-05-03T05:06:00.198Z,98.41
2023-05-03T05:07:00.176Z,98.30
2023-05-03T05:08:00.165Z,98.20
2023-05-03T05:09:00.115Z,98.10
2023-05-03T05:10:00.293Z,98.10
2023-05-03T05:11:00.183Z,97.99
2023-05-03T05:12:00.088Z,97.89
2023-05-03T05:13:00.072Z,97.78
2023-05-03T05:14:00.066Z,97.99
2023-05-03T05:15:00.085Z,98.10
2023-05-03T05:16:00.123Z,97.99
2023-05-03T05:17:00.107Z,98.10
2023-05-03T05:18:00.117Z,98.36
2023-05-03T05:19:00.002Z,98.57
2023-05-03T05:20:00.129Z,98.68
2023-05-03T05:20:59.977Z,98.57
2023-05-03T05:22:00.025Z,98.36
2023-05-03T05:22:59.954Z,98.36
2023-05-03T05:24:00.123Z,98.36
2023-05-03T05:24:59.924Z,98.36
2023-05-03T05:25:59.916Z,98.26
2023-05-03T05:26:59.926Z,98.05
2023-05-03T05:27:59.917Z,98.26
2023-05-03T05:28:59.880Z,98.36
2023-05-03T05:29:59.904Z,98.42
2023-05-03T05:31:00.498Z,98.42
2023-05-03T05:31:59.892Z,98.32
2023-05-03T05:32:59.921Z,98.21
2023-05-03T05:33:59.849Z,98.00
2023-05-03T05:34:59.830Z,98.11
2023-05-03T05:35:59.813Z,98.00
2023-05-03T05:36:59.823Z,97.90
2023-05-03T05:37:59.821Z,97.69
2023-05-03T05:38:59.790Z,97.80
2023-05-03T05:39:59.783Z,98.00
2023-05-03T05:40:59.754Z,98.07
2023-05-03T05:41:59.761Z,97.96
2023-05-03T05:42:59.869Z,97.75
2023-05-03T05:43:59.752Z,97.65
2023-05-03T05:44:59.714Z,97.86
2023-05-03T05:45:59.714Z,97.96
2023-05-03T05:46:59.719Z,98.07
2023-05-03T05:47:59.809Z,98.07
2023-05-03T05:48:59.705Z,97.91
2023-05-03T05:49:59.755Z,98.02
2023-05-03T05:50:59.932Z,98.02
2023-05-03T05:51:59.682Z,98.02
2023-05-03T05:52:59.651Z,98.22
2023-05-03T05:53:59.636Z,98.33
2023-05-03T05:54:59.708Z,98.22
2023-05-03T05:55:59.694Z,98.02
2023-05-03T05:56:59.590Z,97.81
2023-05-03T05:57:59.625Z,97.77
2023-05-03T05:58:59.557Z,97.87
2023-05-03T05:59:59.600Z,97.97
2023-05-03T06:00:59.899Z,98.08
2023-05-03T06:01:59.543Z,97.97
2023-05-03T06:02:59.628Z,97.87
2023-05-03T06:03:59.525Z,97.77
2023-05-03T06:04:59.600Z,97.83
2023-05-03T06:05:59.506Z,97.83
2023-05-03T06:06:59.525Z,97.62
2023-05-03T06:07:59.467Z,97.41
2023-05-03T06:09:01.254Z,97.20
2023-05-03T06:10:00.495Z,97.00
2023-05-03T06:10:59.421Z,97.10
2023-05-03T06:11:59.420Z,97.00
2023-05-03T06:12:59.589Z,96.95
2023-05-03T06:13:59.400Z,96.75
2023-05-03T06:15:02.652Z,96.75
2023-05-03T06:15:59.382Z,96.64
2023-05-03T06:16:59.452Z,96.75
2023-05-03T06:17:59.438Z,96.75
2023-05-03T06:18:59.320Z,96.64
2023-05-03T06:19:59.323Z,96.64
2023-05-03T06:20:59.299Z,96.44
2023-05-03T06:21:59.318Z,96.29
2023-05-03T06:22:59.298Z,96.39
2023-05-03T06:23:59.283Z,96.39
2023-05-03T06:24:59.254Z,96.19
2023-05-03T06:25:59.255Z,96.08
2023-05-03T06:26:59.261Z,95.77
2023-05-03T06:27:59.267Z,95.42
2023-05-03T06:28:59.241Z,95.21
2023-05-03T06:29:59.215Z,95.10
2023-05-03T06:30:59.303Z,94.90
2023-05-03T06:31:59.185Z,94.38
2023-05-03T06:32:59.185Z,94.03
2023-05-03T06:33:59.191Z,94.03
2023-05-03T06:34:59.170Z,93.62
2023-05-03T06:35:59.164Z,93.20
2023-05-03T06:36:59.147Z,93.10
2023-05-03T06:37:59.138Z,92.99
2023-05-03T06:38:59.126Z,92.95
2023-05-03T06:39:59.233Z,93.05
2023-05-03T06:40:59.118Z,92.74
2023-05-03T06:41:59.074Z,92.64
2023-05-03T06:42:59.056Z,92.64
2023-05-03T06:43:59.085Z,92.33
2023-05-03T06:44:59.067Z,91.92
2023-05-03T06:45:59.099Z,91.82
2023-05-03T06:46:59.060Z,91.92
2023-05-03T06:47:59.143Z,91.77
2023-05-03T06:48:59.012Z,91.67
2023-05-03T06:49:58.995Z,91.67
2023-05-03T06:50:58.965Z,91.46
2023-05-03T06:51:58.977Z,91.16
2023-05-03T06:52:58.959Z,91.16
2023-05-03T06:53:58.954Z,91.16
2023-05-03T06:54:58.936Z,91.11
2023-05-03T06:55:58.941Z,91.22
2023-05-03T06:56:58.909Z,90.80
2023-05-03T06:57:58.899Z,90.70
2023-05-03T06:58:58.881Z,90.49
2023-05-03T06:59:58.916Z,90.39
2023-05-03T07:00:58.888Z,90.25
2023-05-03T07:01:58.963Z,89.11
2023-05-03T07:02:58.893Z,89.32
2023-05-03T07:03:58.928Z,89.32
2023-05-03T07:04:58.821Z,89.22
2023-05-03T07:05:58.806Z,89.11
2023-05-03T07:06:58.859Z,89.11
2023-05-03T07:07:58.812Z,88.76
2023-05-03T07:09:07.324Z,88.96
2023-05-03T07:09:58.762Z,89.38
2023-05-03T07:10:58.727Z,89.48
2023-05-03T07:11:58.738Z,88.96
2023-05-03T07:12:58.744Z,88.96
2023-05-03T07:13:58.740Z,88.56
2023-05-03T07:14:58.706Z,88.31
2023-05-03T07:15:59.888Z,88.31
2023-05-03T07:16:58.687Z,88.41
2023-05-03T07:17:58.755Z,88.20
2023-05-03T07:18:58.666Z,87.69
2023-05-03T07:19:58.842Z,87.38
2023-05-03T07:20:58.673Z,87.34
2023-05-03T07:21:58.630Z,87.34
2023-05-03T07:22:58.699Z,86.82
2023-05-03T07:23:58.629Z,86.41
2023-05-03T07:24:58.671Z,86.41
2023-05-03T07:25:58.632Z,86.31
2023-05-03T07:26:58.564Z,85.86
2023-05-03T07:27:58.582Z,85.86
2023-05-03T07:28:58.550Z,85.03
2023-05-03T07:29:58.533Z,85.14
2023-05-03T07:30:58.615Z,85.44
2023-05-03T07:31:58.546Z,86.06
2023-05-03T07:32:58.640Z,86.13
2023-05-03T07:33:58.662Z,85.61
2023-05-03T07:34:58.498Z,85.41
2023-05-03T07:35:58.498Z,84.79
2023-05-03T07:36:58.454Z,85.41
2023-05-03T07:37:58.481Z,84.48
2023-05-03T07:38:58.792Z,83.86
2023-05-03T07:39:58.530Z,83.72
2023-05-03T07:40:58.428Z,84.13
2023-05-03T07:41:58.406Z,83.83
2023-05-03T07:42:58.419Z,83.83
2023-05-03T07:43:58.414Z,83.31
2023-05-03T07:44:58.372Z,82.24
2023-05-03T07:45:58.378Z,82.34
2023-05-03T07:46:58.342Z,81.73
2023-05-03T07:47:58.381Z,82.45
2023-05-03T07:48:58.345Z,82.55
2023-05-03T07:49:58.309Z,82.04
2023-05-03T07:50:58.322Z,82.55
2023-05-03T07:51:58.295Z,81.90
2023-05-03T07:52:58.307Z,80.77
2023-05-03T07:53:58.270Z,80.15
2023-05-03T07:54:58.269Z,80.15
2023-05-03T07:55:58.275Z,79.43
2023-05-03T07:56:58.219Z,78.30
2023-05-03T07:57:58.223Z,79.43
2023-05-03T07:59:08.234Z,79.80
2023-05-03T07:59:59.221Z,78.88
2023-05-03T08:00:58.205Z,79.60
2023-05-03T08:02:00.777Z,78.36
2023-05-03T08:02:58.551Z,77.44
2023-05-03T08:03:58.312Z,77.55
2023-05-03T08:04:58.268Z,78.02
2023-05-03T08:05:58.148Z,77.92
2023-05-03T08:06:58.191Z,76.17
2023-05-03T08:07:58.114Z,74.43
2023-05-03T08:08:58.131Z,74.63
2023-05-03T08:09:58.081Z,75.97
2023-05-03T08:10:58.123Z,73.57
2023-05-03T08:11:58.077Z,74.08
2023-05-03T08:12:58.124Z,76.04
2023-05-03T08:13:58.058Z,74.80
2023-05-03T08:14:58.039Z,75.52
2023-05-03T08:15:58.037Z,73.85
2023-05-03T08:16:58.047Z,74.57
2023-05-03T08:17:58.233Z,74.26
2023-05-03T08:18:57.993Z,74.77
2023-05-03T08:19:57.992Z,75.08
2023-05-03T08:20:57.965Z,74.02
2023-05-03T08:21:57.981Z,74.84
2023-05-03T08:22:58.350Z,75.11
2023-05-03T08:23:57.922Z,74.19
2023-05-03T08:24:57.922Z,73.47
2023-05-03T08:25:57.917Z,72.24
2023-05-03T08:26:57.919Z,72.82
2023-05-03T08:27:57.885Z,71.49
2023-05-03T08:28:57.929Z,71.49
2023-05-03T08:29:57.888Z,69.44
2023-05-03T08:30:57.896Z,72.41
2023-05-03T08:31:57.906Z,71.59
2023-05-03T08:32:58.000Z,70.98
2023-05-03T08:33:57.835Z,72.55
2023-05-03T08:34:58.036Z,72.03
2023-05-03T08:35:57.798Z,72.03
2023-05-03T08:37:04.855Z,75.48
2023-05-03T08:37:57.847Z,74.05
2023-05-03T08:38:57.794Z,75.14
2023-05-03T08:39:57.770Z,72.78
2023-05-03T08:40:57.782Z,71.97
2023-05-03T08:41:57.747Z,72.86
2023-05-03T08:42:57.723Z,73.64
2023-05-03T08:43:57.711Z,76.47
2023-05-03T08:44:57.726Z,74.56
2023-05-03T08:45:57.714Z,73.88
2023-05-03T08:46:57.768Z,68.84
2023-05-03T08:47:57.706Z,66.47
2023-05-03T08:48:57.667Z,66.67
2023-05-03T08:49:57.655Z,67.96
2023-05-03T08:50:57.660Z,67.63
2023-05-03T08:51:57.629Z,69.36
2023-05-03T08:52:57.628Z,65.39
2023-05-03T08:53:57.596Z,64.37
2023-05-03T08:54:57.600Z,65.39
2023-05-03T08:55:57.607Z,65.86
2023-05-03T08:56:57.611Z,63.80
2023-05-03T08:57:57.564Z,63.09
2023-05-03T08:58:57.536Z,61.90
2023-05-03T08:59:57.574Z,63.93
2023-05-03T09:00:57.556Z,63.01
2023-05-03T09:01:57.692Z,62.71
2023-05-03T09:02:57.584Z,61.49
2023-05-03T09:03:57.577Z,65.66
2023-05-03T09:04:57.498Z,62.81
2023-05-03T09:05:57.450Z,60.70
2023-05-03T09:06:57.503Z,60.91
2023-05-03T09:07:57.529Z,60.66
2023-05-03T09:08:57.448Z,61.80
2023-05-03T09:09:57.416Z,63.26
2023-05-03T09:10:57.492Z,64.93
2023-05-03T09:11:57.403Z,65.84
2023-05-03T09:12:57.379Z,66.25
2023-05-03T09:13:57.363Z,65.13
2023-05-03T09:14:57.385Z,66.39
2023-05-03T09:15:57.422Z,66.80
2023-05-03T09:16:57.551Z,68.09
2023-05-03T09:17:57.338Z,68.26
2023-05-03T09:18:57.358Z,65.89
2023-05-03T09:19:57.302Z,66.74
2023-05-03T09:20:59.097Z,67.80
2023-05-03T09:21:57.330Z,63.16
2023-05-03T09:22:57.270Z,62.32
2023-05-03T09:23:57.518Z,62.08
2023-05-03T09:24:57.290Z,60.13
2023-05-03T09:25:57.252Z,61.93
2023-05-03T09:26:57.232Z,60.60
2023-05-03T09:27:57.223Z,61.66
2023-05-03T09:28:57.573Z,59.81
2023-05-03T09:29:57.182Z,59.00
2023-05-03T09:30:57.207Z,59.99
2023-05-03T09:31:57.196Z,58.84
2023-05-03T09:32:57.184Z,59.34
2023-05-03T09:33:57.156Z,57.53
2023-05-03T09:34:57.160Z,55.10
2023-05-03T09:35:57.124Z,56.10
2023-05-03T09:36:57.124Z,53.09
2023-05-03T09:37:57.087Z,55.85
2023-05-03T09:38:57.129Z,55.58
2023-05-03T09:39:57.090Z,57.12
2023-05-03T09:40:57.069Z,58.85
2023-05-03T09:41:57.066Z,58.34
2023-05-03T09:42:57.068Z,61.16
2023-05-03T09:43:57.047Z,58.42
2023-05-03T09:44:57.024Z,59.43
2023-05-03T09:45:57.058Z,59.41
2023-05-03T09:46:57.007Z,58.26
2023-05-03T09:47:57.140Z,57.09
2023-05-03T09:48:57.061Z,56.28
2023-05-03T09:49:56.955Z,57.29
2023-05-03T09:50:56.990Z,55.95
2023-05-03T09:51:56.979Z,54.84
2023-05-03T09:52:56.945Z,55.65
2023-05-03T09:53:56.914Z,55.95
2023-05-03T09:54:56.967Z,54.74
2023-05-03T09:55:56.938Z,55.32
2023-05-03T09:56:56.900Z,54.18
2023-05-03T09:57:56.891Z,54.28
2023-05-03T09:58:56.895Z,51.17
2023-05-03T09:59:56.862Z,51.47
2023-05-03T10:00:56.899Z,55.07
2023-05-03T10:01:56.814Z,57.84
2023-05-03T10:02:56.874Z,58.92
2023-05-03T10:03:56.896Z,58.90
2023-05-03T10:04:56.864Z,57.86
2023-05-03T10:05:56.809Z,58.67
2023-05-03T10:06:56.768Z,56.92
2023-05-03T10:07:56.756Z,56.86
2023-05-03T10:08:56.761Z,54.44
2023-05-03T10:09:56.740Z,54.00
2023-05-03T10:10:56.754Z,54.41
2023-05-03T10:11:56.706Z,54.82
2023-05-03T10:12:56.701Z,54.89
2023-05-03T10:13:56.681Z,52.97
2023-05-03T10:14:56.698Z,52.87
2023-05-03T10:15:56.719Z,52.76
2023-05-03T10:16:56.668Z,52.64
2023-05-03T10:17:56.688Z,52.94
2023-05-03T10:18:56.682Z,53.14
2023-05-03T10:19:56.664Z,52.34
2023-05-03T10:20:56.624Z,51.63
2023-05-03T10:21:56.595Z,54.76
2023-05-03T10:22:56.606Z,54.83
2023-05-03T10:23:56.606Z,53.60
2023-05-03T10:24:56.573Z,50.75
2023-05-03T10:25:56.571Z,51.28
2023-05-03T10:26:56.554Z,52.26
2023-05-03T10:27:56.539Z,52.19
2023-05-03T10:28:56.550Z,50.37
2023-05-03T10:29:56.519Z,50.70
2023-05-03T10:30:56.548Z,50.01
2023-05-03T10:31:56.579Z,52.36
2023-05-03T10:32:56.573Z,53.27
2023-05-03T10:33:56.472Z,53.19
2023-05-03T10:34:56.465Z,52.59
2023-05-03T10:35:56.456Z,54.21
2023-05-03T10:36:56.669Z,54.79
2023-05-03T10:37:56.455Z,54.46
2023-05-03T10:38:56.419Z,52.59
2023-05-03T10:39:57.497Z,52.16
2023-05-03T10:40:56.439Z,51.93
2023-05-03T10:41:56.366Z,50.82
2023-05-03T10:42:56.377Z,49.82
2023-05-03T10:43:56.369Z,50.32
2023-05-03T10:44:56.361Z,49.52
2023-05-03T10:45:56.376Z,52.24
2023-05-03T10:46:56.329Z,50.85
2023-05-03T10:47:56.354Z,50.85
2023-05-03T10:48:56.357Z,50.37
2023-05-03T10:49:56.285Z,50.27
2023-05-03T10:50:56.291Z,48.62
2023-05-03T10:51:57.306Z,49.90
2023-05-03T10:52:56.404Z,51.37
2023-05-03T10:53:56.254Z,52.23
2023-05-03T10:54:56.238Z,54.66
2023-05-03T10:55:56.232Z,55.78
2023-05-03T10:56:56.251Z,55.68
2023-05-03T10:57:56.200Z,55.63
2023-05-03T10:58:56.318Z,55.27
2023-05-03T10:59:56.168Z,50.92
2023-05-03T11:00:56.161Z,51.35
2023-05-03T11:01:56.255Z,52.94
2023-05-03T11:02:56.182Z,52.74
2023-05-03T11:03:56.161Z,53.02
2023-05-03T11:04:56.307Z,56.13
2023-05-03T11:05:56.130Z,52.23
2023-05-03T11:06:56.340Z,50.39
2023-05-03T11:07:56.092Z,49.89
2023-05-03T11:08:56.098Z,49.99
2023-05-03T11:09:56.095Z,50.70
2023-05-03T11:10:56.086Z,49.61
2023-05-03T11:11:56.091Z,51.25
2023-05-03T11:12:56.032Z,53.25
2023-05-03T11:13:56.168Z,51.71
2023-05-03T11:14:56.027Z,52.69
2023-05-03T11:15:56.409Z,50.04
2023-05-03T11:16:56.133Z,50.32
2023-05-03T11:17:56.002Z,48.41
2023-05-03T11:18:55.968Z,47.50
2023-05-03T11:19:55.943Z,49.01
2023-05-03T11:20:55.975Z,48.30
2023-05-03T11:21:55.949Z,49.41
2023-05-03T11:22:55.933Z,49.90
2023-05-03T11:23:55.904Z,48.56
2023-05-03T11:24:55.897Z,48.46
2023-05-03T11:25:55.893Z,47.96
2023-05-03T11:26:55.918Z,50.07
2023-05-03T11:27:55.853Z,50.27
2023-05-03T11:28:55.863Z,48.76
2023-05-03T11:29:55.821Z,49.67
2023-05-03T11:30:55.840Z,48.66
2023-05-03T11:31:55.934Z,47.45
2023-05-03T11:32:55.890Z,46.49
2023-05-03T11:33:55.784Z,47.14
2023-05-03T11:34:55.808Z,48.19
2023-05-03T11:35:55.786Z,50.64
2023-05-03T11:36:55.765Z,50.46
2023-05-03T11:37:55.942Z,51.78
2023-05-03T11:38:55.744Z,54.41
2023-05-03T11:39:55.725Z,52.26
2023-05-03T11:40:55.727Z,52.44
2023-05-03T11:41:55.741Z,52.51
2023-05-03T11:42:55.779Z,50.95
2023-05-03T11:44:07.789Z,50.24
2023-05-03T11:44:56.672Z,51.13
2023-05-03T11:45:55.751Z,50.20
2023-05-03T11:46:55.864Z,48.96
2023-05-03T11:47:55.812Z,48.86
2023-05-03T11:48:55.755Z,48.84
2023-05-03T11:49:55.844Z,49.50
2023-05-03T11:51:02.672Z,46.88
2023-05-03T11:51:55.806Z,47.08
2023-05-03T11:52:55.614Z,47.39
2023-05-03T11:53:55.555Z,46.70
2023-05-03T11:54:55.615Z,46.60
2023-05-03T11:55:55.540Z,44.53
2023-05-03T11:56:55.556Z,45.62
2023-05-03T11:57:55.700Z,47.41
2023-05-03T11:58:55.526Z,48.74
2023-05-03T11:59:55.500Z,50.46
2023-05-03T12:00:55.503Z,50.64
2023-05-03T12:01:55.537Z,52.03
2023-05-03T12:02:55.558Z,48.62
2023-05-03T12:03:55.833Z,51.05
2023-05-03T12:04:56.145Z,48.24
2023-05-03T12:05:55.570Z,49.60
2023-05-03T12:06:56.316Z,52.03
2023-05-03T12:07:56.829Z,51.83
2023-05-03T12:08:55.698Z,52.21
2023-05-03T12:10:06.340Z,51.81
2023-05-03T12:10:58.494Z,54.41
2023-05-03T12:11:56.021Z,51.78
2023-05-03T12:12:56.754Z,52.56
2023-05-03T12:13:55.557Z,53.22
2023-05-03T12:14:55.390Z,49.26
2023-05-03T12:16:10.250Z,49.11
2023-05-03T12:16:56.926Z,48.41
2023-05-03T12:17:56.356Z,51.93
2023-05-03T12:18:56.682Z,51.28
2023-05-03T12:20:12.718Z,48.03
2023-05-03T12:21:30.308Z,46.53
2023-05-03T12:22:18.016Z,47.63
2023-05-03T12:22:58.977Z,46.65
2023-05-03T12:23:56.715Z,48.36
2023-05-03T12:24:57.627Z,50.15
2023-05-03T12:25:56.965Z,46.22
2023-05-03T12:26:57.333Z,45.62
2023-05-03T12:28:14.862Z,46.80
2023-05-03T12:28:56.997Z,47.31
2023-05-03T12:29:57.229Z,46.18
2023-05-03T12:30:57.625Z,44.71
2023-05-03T12:31:55.182Z,48.18
2023-05-03T12:32:57.157Z,50.12
2023-05-03T12:34:11.873Z,50.30
2023-05-03T12:34:57.040Z,49.29
2023-05-03T12:35:58.274Z,48.28
2023-05-03T12:36:56.602Z,49.82
2023-05-03T12:37:56.020Z,48.43
2023-05-03T12:38:56.737Z,51.13
2023-05-03T12:40:14.880Z,50.52
2023-05-03T12:40:56.117Z,50.70
2023-05-03T12:42:06.999Z,48.96
2023-05-03T12:42:56.044Z,47.53
2023-05-03T12:43:55.104Z,45.74
2023-05-03T12:44:57.058Z,46.97
2023-05-03T12:46:23.538Z,50.20
2023-05-03T12:46:56.133Z,50.50
2023-05-03T12:47:55.145Z,47.78
2023-05-03T12:48:55.164Z,46.29
2023-05-03T12:49:59.403Z,45.70
2023-05-03T12:51:13.566Z,45.85
2023-05-03T12:52:18.779Z,48.98